createdAt,value
2019-01-03T00:01:27.395Z,103066.02
2019-01-03T00:04:01.183Z,103064.48
2019-01-03T00:06:31.927Z,103064.80
2019-01-03T00:08:59.769Z,103087.45
2019-01-03T00:11:44.377Z,103087.45
2019-01-03T00:14:12.337Z,103087.02
2019-01-03T00:16:52.295Z,103092.70
2019-01-03T00:19:20.259Z,103092.70
2019-01-03T00:21:57.038Z,103090.98
2019-01-03T00:24:24.963Z,103093.09
2019-01-03T00:26:58.656Z,103097.63
2019-01-03T00:29:29.504Z,103100.21
2019-01-03T00:31:57.519Z,103099.62
2019-01-03T00:34:25.447Z,103107.22
2019-01-03T00:37:11.312Z,103100.58
2019-01-03T00:39:42.178Z,103097.58
2019-01-03T00:42:12.748Z,103100.65
2019-01-03T00:44:58.813Z,103099.53
2019-01-03T00:47:43.269Z,103106.56
2019-01-03T00:50:14.073Z,103103.80
2019-01-03T00:52:41.922Z,103117.42
2019-01-03T00:55:09.851Z,103117.42
2019-01-03T00:57:52.967Z,103122.12
2019-01-03T01:00:20.952Z,103122.12
2019-01-03T01:02:48.860Z,103126.69
2019-01-03T01:05:22.860Z,103129.02
2019-01-03T01:08:06.843Z,103123.20
2019-01-03T01:10:40.596Z,103121.56
2019-01-03T01:13:17.496Z,103119.62
2019-01-03T01:15:48.280Z,103129.45
2019-01-03T01:18:16.198Z,103124.92
2019-01-03T01:20:47.051Z,103129.09
2019-01-03T01:23:23.953Z,103132.23
2019-01-03T01:25:57.662Z,103132.56
2019-01-03T01:28:28.566Z,103127.05
2019-01-03T01:30:59.115Z,103127.38
2019-01-03T01:33:32.767Z,103130.75
2019-01-03T01:36:15.716Z,103132.94
2019-01-03T01:38:43.732Z,103132.94
2019-01-03T01:41:23.706Z,103129.88
2019-01-03T01:44:00.850Z,103143.27
2019-01-03T01:46:28.640Z,103147.63
2019-01-03T01:48:59.207Z,103141.89
2019-01-03T01:51:39.102Z,103151.87
2019-01-03T01:54:12.682Z,103146.64
2019-01-03T01:56:58.609Z,103147.84
2019-01-03T01:59:44.706Z,103147.84
2019-01-03T02:02:18.479Z,103156.97
2019-01-03T02:05:02.725Z,103152.19
2019-01-03T02:07:36.965Z,103160.84
2019-01-03T02:10:18.277Z,103158.56
2019-01-03T02:12:55.335Z,103167.50
2019-01-03T02:15:39.837Z,103163.36
2019-01-03T02:18:07.824Z,103169.72
2019-01-03T02:20:47.382Z,103173.50
2019-01-03T02:23:24.304Z,103173.50
2019-01-03T02:25:54.841Z,103183.98
2019-01-03T02:28:28.889Z,103195.70
2019-01-03T02:31:13.510Z,103196.81
2019-01-03T02:33:57.912Z,103199.20
2019-01-03T02:36:34.816Z,103195.92
2019-01-03T02:39:11.658Z,103194.97
2019-01-03T02:41:54.325Z,103191.77
2019-01-03T02:44:22.593Z,103185.13
2019-01-03T02:46:50.424Z,103193.69
2019-01-03T02:49:18.280Z,103200.52
2019-01-03T02:51:55.470Z,103202.72
2019-01-03T02:54:40.116Z,103196.17
2019-01-03T02:57:24.515Z,103203.53
2019-01-03T03:00:08.557Z,103203.82
2019-01-03T03:02:52.937Z,103192.83
2019-01-03T03:05:20.988Z,103189.34
2019-01-03T03:08:04.189Z,103187.58
2019-01-03T03:10:41.226Z,103190.45
2019-01-03T03:13:18.057Z,103194.22
2019-01-03T03:15:48.888Z,103198.48
2019-01-03T03:18:16.722Z,103201.39
2019-01-03T03:20:53.789Z,103205.06
2019-01-03T03:23:33.684Z,103207.94
2019-01-03T03:26:04.687Z,103206.66
2019-01-03T03:28:35.513Z,103213.48
2019-01-03T03:31:20.091Z,103206.94
2019-01-03T03:33:59.733Z,103199.91
2019-01-03T03:36:42.954Z,103195.95
2019-01-03T03:39:10.853Z,103198.91
2019-01-03T03:41:38.972Z,103202.21
2019-01-03T03:44:12.948Z,103199.92
2019-01-03T03:46:40.843Z,103196.05
2019-01-03T03:49:25.483Z,103193.99
2019-01-03T03:51:56.005Z,103192.70
2019-01-03T03:54:29.758Z,103191.80
2019-01-03T03:57:03.573Z,103191.99
2019-01-03T03:59:34.655Z,103189.13
2019-01-03T04:02:14.657Z,103196.05
2019-01-03T04:04:58.925Z,103192.70
2019-01-03T04:07:35.906Z,103183.25
2019-01-03T04:10:04.467Z,103135.44
2019-01-03T04:12:32.273Z,103192.70
2019-01-03T04:15:03.038Z,103188.41
2019-01-03T04:17:39.573Z,103189.70
2019-01-03T04:20:10.294Z,103183.58
2019-01-03T04:22:54.662Z,103184.67
2019-01-03T04:25:39.159Z,103193.52
2019-01-03T04:28:22.179Z,103192.80
2019-01-03T04:31:06.552Z,103187.64
2019-01-03T04:33:50.834Z,103188.94
2019-01-03T04:36:18.883Z,103189.45
2019-01-03T04:38:46.824Z,103183.48
2019-01-03T04:41:31.385Z,103182.48
2019-01-03T04:44:17.470Z,103186.26
2019-01-03T04:47:01.918Z,103191.42
2019-01-03T04:49:29.820Z,103194.52
2019-01-03T04:52:00.358Z,103196.48
2019-01-03T04:54:34.077Z,103106.95
2019-01-03T04:57:08.019Z,103192.52
2019-01-03T04:59:52.239Z,103187.45
2019-01-03T05:02:22.790Z,103179.33
2019-01-03T05:04:50.596Z,103181.00
2019-01-03T05:07:34.969Z,103179.05
2019-01-03T05:10:19.544Z,103184.58
2019-01-03T05:13:03.995Z,103186.52
2019-01-03T05:15:34.917Z,103192.96
2019-01-03T05:18:15.174Z,103196.02
2019-01-03T05:20:43.067Z,103190.86
2019-01-03T05:23:10.872Z,103189.25
2019-01-03T05:25:39.009Z,103190.64
2019-01-03T05:28:06.805Z,103188.87
2019-01-03T05:30:40.308Z,103184.58
2019-01-03T05:33:26.317Z,103188.16
2019-01-03T05:36:11.029Z,103194.41
2019-01-03T05:38:44.940Z,103192.41
2019-01-03T05:41:19.072Z,103186.77
2019-01-03T05:43:52.855Z,103188.16
2019-01-03T05:46:20.859Z,103192.41
2019-01-03T05:48:48.754Z,103195.41
2019-01-03T05:51:16.567Z,103191.39
2019-01-03T05:54:00.955Z,103201.08
2019-01-03T05:56:34.769Z,103198.83
2019-01-03T05:59:05.603Z,103197.83
2019-01-03T06:01:33.499Z,103200.20
2019-01-03T06:04:19.437Z,103144.61
2019-01-03T06:06:59.468Z,103204.55
2019-01-03T06:09:30.538Z,103211.61
2019-01-03T06:12:14.730Z,103206.84
2019-01-03T06:14:48.582Z,103210.91
2019-01-03T06:17:19.113Z,103211.81
2019-01-03T06:20:02.151Z,103213.48
2019-01-03T06:22:29.959Z,103213.48
2019-01-03T06:25:10.365Z,103201.89
2019-01-03T06:27:38.145Z,103203.66
2019-01-03T06:30:21.364Z,103198.41
2019-01-03T06:33:05.787Z,103208.81
2019-01-03T06:35:50.113Z,103210.71
2019-01-03T06:38:23.883Z,103215.58
2019-01-03T06:40:58.118Z,103208.55
2019-01-03T06:43:35.060Z,103215.47
2019-01-03T06:46:09.036Z,103216.37
2019-01-03T06:48:51.766Z,103223.41
2019-01-03T06:51:28.711Z,103226.56
2019-01-03T06:53:56.550Z,103229.66
2019-01-03T06:56:30.616Z,103222.31
2019-01-03T06:59:07.434Z,103221.02
2019-01-03T07:01:38.220Z,103214.97
2019-01-03T07:04:06.046Z,103225.38
2019-01-03T07:06:50.383Z,103220.73
2019-01-03T07:09:34.781Z,103222.99
2019-01-03T07:12:11.641Z,103222.51
2019-01-03T07:14:42.149Z,103216.45
2019-01-03T07:17:28.176Z,103217.84
2019-01-03T07:20:08.150Z,103210.20
2019-01-03T07:22:38.933Z,103214.59
2019-01-03T07:25:06.870Z,103213.75
2019-01-03T07:27:46.992Z,103214.07
2019-01-03T07:30:17.784Z,103204.66
2019-01-03T07:33:02.584Z,103198.22
2019-01-03T07:35:37.123Z,103196.92
2019-01-03T07:38:07.854Z,103186.77
2019-01-03T07:40:38.508Z,103184.77
2019-01-03T07:43:06.499Z,103187.55
2019-01-03T07:45:41.035Z,103183.78
2019-01-03T07:48:21.146Z,103177.43
2019-01-03T07:51:07.313Z,103179.23
2019-01-03T07:53:40.824Z,103187.06
2019-01-03T07:56:14.916Z,103182.00
2019-01-03T07:58:59.387Z,103172.27
2019-01-03T08:01:43.903Z,103182.67
2019-01-03T08:04:14.735Z,103168.92
2019-01-03T08:06:54.772Z,103165.53
2019-01-03T08:09:28.331Z,103168.69
2019-01-03T08:12:02.101Z,103164.53
2019-01-03T08:14:46.569Z,103163.43
2019-01-03T08:17:17.285Z,103161.75
2019-01-03T08:20:01.526Z,103148.53
2019-01-03T08:22:29.735Z,103154.20
2019-01-03T08:25:13.953Z,103161.33
2019-01-03T08:27:59.592Z,103152.59
2019-01-03T08:30:33.422Z,103149.72
2019-01-03T08:33:10.364Z,103144.56
2019-01-03T08:35:44.180Z,103134.33
2019-01-03T08:38:20.823Z,103131.04
2019-01-03T08:41:03.823Z,103130.36
2019-01-03T08:43:48.185Z,103118.94
2019-01-03T08:46:18.991Z,103111.28
2019-01-03T08:48:50.089Z,103113.48
2019-01-03T08:51:26.964Z,103114.86
2019-01-03T08:54:11.554Z,103099.05
2019-01-03T08:56:48.427Z,103095.79
2019-01-03T08:59:16.562Z,103097.27
2019-01-03T09:01:44.362Z,103098.28
2019-01-03T09:04:12.211Z,103086.39
2019-01-03T09:06:56.790Z,103084.20
2019-01-03T09:09:27.358Z,103087.77
2019-01-03T09:11:58.286Z,103083.19
2019-01-03T09:14:26.211Z,103077.30
2019-01-03T09:17:12.447Z,103071.13
2019-01-03T09:19:40.488Z,103053.25
2019-01-03T09:22:11.445Z,103056.01
2019-01-03T09:24:55.963Z,103053.31
2019-01-03T09:27:26.532Z,103047.42
2019-01-03T09:29:54.353Z,103032.55
2019-01-03T09:32:25.153Z,103031.43
2019-01-03T09:35:04.896Z,103039.65
2019-01-03T09:37:32.982Z,103037.97
2019-01-03T09:40:00.880Z,103036.30
2019-01-03T09:42:31.430Z,103039.35
2019-01-03T09:44:57.525Z,103035.66
2019-01-03T09:47:23.436Z,103034.55
2019-01-03T09:49:49.360Z,103032.53
2019-01-03T09:52:15.442Z,103028.74
2019-01-03T09:54:41.459Z,103027.06
2019-01-03T09:57:07.563Z,103015.14
2019-01-03T09:59:33.735Z,103010.06
2019-01-03T10:01:59.802Z,103011.02
2019-01-03T10:04:25.782Z,103005.47
2019-01-03T10:06:51.926Z,103003.96
2019-01-03T10:09:17.874Z,102992.00
2019-01-03T10:11:43.971Z,102978.48
2019-01-03T10:14:10.155Z,102967.94
2019-01-03T10:16:36.153Z,102962.52
2019-01-03T10:19:02.190Z,102959.16
2019-01-03T10:21:28.404Z,102947.92
2019-01-03T10:23:54.414Z,102941.63
2019-01-03T10:26:20.423Z,102935.34
2019-01-03T10:28:46.700Z,102938.91
2019-01-03T10:31:12.599Z,102927.03
2019-01-03T10:33:38.756Z,102922.84
2019-01-03T10:36:04.732Z,102904.53
2019-01-03T10:38:30.641Z,102881.02
2019-01-03T10:40:56.792Z,102886.78
2019-01-03T10:43:23.972Z,102874.03
2019-01-03T10:45:50.217Z,102865.23
2019-01-03T10:48:16.138Z,102853.76
2019-01-03T10:50:42.209Z,102856.89
2019-01-03T10:53:08.270Z,102860.14
2019-01-03T10:55:34.288Z,102852.55
2019-01-03T10:58:00.504Z,102846.33
2019-01-03T11:00:26.658Z,102829.26
2019-01-03T11:02:52.575Z,102829.41
2019-01-03T11:05:18.717Z,102836.94
2019-01-03T11:07:44.732Z,102846.14
2019-01-03T11:10:10.676Z,102849.78
2019-01-03T11:12:36.918Z,102839.59
2019-01-03T11:15:04.442Z,102829.48
2019-01-03T11:17:30.374Z,102827.92
2019-01-03T11:19:56.461Z,102826.78
2019-01-03T11:22:22.410Z,102828.38
2019-01-03T11:24:48.405Z,102820.34
2019-01-03T11:27:14.600Z,102831.42
2019-01-03T11:29:40.651Z,102824.22
2019-01-03T11:32:06.700Z,102818.41
2019-01-03T11:34:32.879Z,102828.16
2019-01-03T11:36:58.817Z,102820.62
2019-01-03T11:39:24.744Z,102819.63
2019-01-03T11:41:50.934Z,102812.63
2019-01-03T11:44:16.868Z,102790.95
2019-01-03T11:46:42.768Z,102780.06
2019-01-03T11:49:08.841Z,102772.73
2019-01-03T11:51:34.762Z,102770.18
2019-01-03T11:54:00.696Z,102763.09
2019-01-03T11:56:26.764Z,102764.02
2019-01-03T11:58:52.738Z,102744.05
2019-01-03T12:01:18.645Z,102744.05
2019-01-03T12:03:44.659Z,102731.17
2019-01-03T12:06:10.664Z,102735.03
2019-01-03T12:08:36.794Z,102734.64
2019-01-03T12:11:02.888Z,102709.50
2019-01-03T12:13:28.811Z,102709.50
2019-01-03T12:15:54.723Z,102717.80
2019-01-03T12:18:20.878Z,102712.78
2019-01-03T12:20:46.815Z,102705.84
2019-01-03T12:23:12.721Z,102688.89
2019-01-03T12:25:38.720Z,102693.92
2019-01-03T12:28:04.629Z,102690.33
2019-01-03T12:30:30.693Z,102679.80
2019-01-03T12:32:56.788Z,102654.66
2019-01-03T12:35:22.791Z,102654.66
2019-01-03T12:37:48.842Z,102659.77
2019-01-03T12:40:15.100Z,102645.38
2019-01-03T12:42:41.135Z,102636.97
2019-01-03T12:45:07.237Z,102629.87
2019-01-03T12:47:33.399Z,102619.64
2019-01-03T12:49:59.432Z,102612.52
2019-01-03T12:52:25.327Z,102615.79
2019-01-03T12:54:51.547Z,102610.81
2019-01-03T12:57:17.460Z,102613.28
2019-01-03T12:59:43.574Z,102615.25
2019-01-03T13:02:09.747Z,102600.77
2019-01-03T13:04:35.795Z,102584.52
2019-01-03T13:07:01.847Z,102571.30
2019-01-03T13:09:28.079Z,102554.75
2019-01-03T13:11:53.995Z,102554.75
2019-01-03T13:14:19.906Z,102558.89
2019-01-03T13:16:45.956Z,102549.89
2019-01-03T13:19:11.898Z,102546.19
2019-01-03T13:21:37.918Z,102532.03
2019-01-03T13:24:04.100Z,102529.13
2019-01-03T13:26:30.076Z,102518.42
2019-01-03T13:28:55.987Z,102515.95
2019-01-03T13:31:22.116Z,102508.78
2019-01-03T13:33:48.153Z,102494.56
2019-01-03T13:36:14.237Z,102486.46
2019-01-03T13:38:40.479Z,102488.34
2019-01-03T13:41:06.425Z,102472.42
2019-01-03T13:43:32.339Z,102475.65
2019-01-03T13:45:58.331Z,102469.73
2019-01-03T13:48:24.267Z,102459.04
2019-01-03T13:50:50.261Z,102454.81
2019-01-03T13:53:16.304Z,102446.65
2019-01-03T13:55:42.314Z,102439.86
2019-01-03T13:58:08.266Z,102428.64
2019-01-03T14:00:34.360Z,102416.59
2019-01-03T14:03:00.377Z,102402.77
2019-01-03T14:05:26.295Z,102399.02
2019-01-03T14:07:52.484Z,102389.58
2019-01-03T14:10:18.421Z,102379.25
2019-01-03T14:12:44.315Z,102364.59
2019-01-03T14:15:10.547Z,102359.05
2019-01-03T14:17:36.583Z,102360.02
2019-01-03T14:20:04.599Z,102347.56
2019-01-03T14:22:30.614Z,102339.41
2019-01-03T14:24:56.532Z,102333.02
2019-01-03T14:27:22.522Z,102325.34
2019-01-03T14:29:48.589Z,102318.49
2019-01-03T14:32:14.493Z,102299.50
2019-01-03T14:34:40.541Z,102293.50
2019-01-03T14:37:06.688Z,102282.77
2019-01-03T14:39:32.608Z,102275.91
2019-01-03T14:41:58.511Z,102258.25
2019-01-03T14:44:24.747Z,102252.75
2019-01-03T14:46:50.719Z,102235.91
2019-01-03T14:49:16.717Z,102226.94
2019-01-03T14:51:42.827Z,102207.03
2019-01-03T14:54:08.764Z,102195.89
2019-01-03T14:56:34.703Z,102190.84
2019-01-03T14:59:00.798Z,102180.56
2019-01-03T15:01:26.712Z,102174.18
2019-01-03T15:03:52.651Z,102169.98
2019-01-03T15:06:19.018Z,102167.48
2019-01-03T15:08:44.912Z,102137.27
2019-01-03T15:11:10.951Z,102137.27
2019-01-03T15:13:37.052Z,102136.92
2019-01-03T15:16:03.176Z,102133.12
2019-01-03T15:18:29.123Z,102121.08
2019-01-03T15:20:55.396Z,102109.40
2019-01-03T15:23:21.450Z,102109.09
2019-01-03T15:25:47.357Z,102108.77
2019-01-03T15:28:13.542Z,102085.38
2019-01-03T15:30:39.575Z,102079.85
2019-01-03T15:33:05.501Z,102067.38
2019-01-03T15:35:31.676Z,102067.38
2019-01-03T15:37:57.609Z,102077.55
2019-01-03T15:40:23.532Z,102058.44
2019-01-03T15:42:49.591Z,102044.13
2019-01-03T15:45:15.508Z,102045.09
2019-01-03T15:47:41.427Z,102041.66
2019-01-03T15:50:07.732Z,102026.92
2019-01-03T15:52:33.728Z,102018.70
2019-01-03T15:54:59.712Z,102006.56
2019-01-03T15:57:25.703Z,102006.16
2019-01-03T15:59:51.619Z,101995.76
2019-01-03T16:02:17.525Z,101986.22
2019-01-03T16:04:43.540Z,101977.12
2019-01-03T16:07:09.590Z,101966.69
2019-01-03T16:09:35.529Z,101965.41
2019-01-03T16:12:01.608Z,101952.36
2019-01-03T16:14:27.521Z,101943.69
2019-01-03T16:16:53.434Z,101943.72
2019-01-03T16:19:19.515Z,101929.36
2019-01-03T16:21:45.443Z,101925.47
2019-01-03T16:24:11.360Z,101924.18
2019-01-03T16:26:37.330Z,101915.47
2019-01-03T16:29:03.477Z,101901.97
2019-01-03T16:31:29.640Z,101903.73
2019-01-03T16:33:55.756Z,101897.66
2019-01-03T16:36:21.735Z,101878.45
2019-01-03T16:38:47.677Z,101878.48
2019-01-03T16:41:13.888Z,101875.88
2019-01-03T16:43:39.802Z,101867.17
2019-01-03T16:46:05.701Z,101868.49
2019-01-03T16:48:31.782Z,101855.41
2019-01-03T16:50:57.777Z,101854.53
2019-01-03T16:53:23.702Z,101846.67
2019-01-03T16:55:49.879Z,101846.67
2019-01-03T16:58:15.802Z,101829.66
2019-01-03T17:00:41.825Z,101830.97
2019-01-03T17:03:07.925Z,101824.00
2019-01-03T17:05:33.912Z,101817.00
2019-01-03T17:07:59.951Z,101813.06
2019-01-03T17:10:26.288Z,101813.95
2019-01-03T17:12:52.282Z,101815.69
2019-01-03T17:15:18.183Z,101827.48
2019-01-03T17:17:44.469Z,101809.15
2019-01-03T17:20:10.478Z,101791.27
2019-01-03T17:22:36.506Z,101778.59
2019-01-03T17:25:03.012Z,101774.25
2019-01-03T17:27:29.006Z,101778.17
2019-01-03T17:29:54.924Z,101769.43
2019-01-03T17:32:21.159Z,101750.67
2019-01-03T17:34:47.204Z,101753.72
2019-01-03T17:37:13.196Z,101744.12
2019-01-03T17:39:39.206Z,101729.25
2019-01-03T17:42:05.085Z,101738.00
2019-01-03T17:44:31.014Z,101734.07
2019-01-03T17:46:57.191Z,101726.20
2019-01-03T17:49:23.120Z,101715.73
2019-01-03T17:51:49.162Z,101721.85
2019-01-03T17:54:15.132Z,101710.92
2019-01-03T17:56:41.141Z,101704.83
2019-01-03T17:59:07.047Z,101691.72
2019-01-03T18:01:33.122Z,101678.63
2019-01-03T18:03:59.230Z,101674.27
2019-01-03T18:06:25.100Z,101675.58
2019-01-03T18:08:51.262Z,101668.14
2019-01-03T18:11:17.322Z,101672.50
2019-01-03T18:13:43.333Z,101669.88
2019-01-03T18:16:09.418Z,101662.90
2019-01-03T18:18:36.815Z,101656.34
2019-01-03T18:21:02.956Z,101659.39
2019-01-03T18:23:29.147Z,101651.53
2019-01-03T18:25:55.145Z,101648.48
2019-01-03T18:28:21.187Z,101642.36
2019-01-03T18:30:47.556Z,101630.56
2019-01-03T18:33:13.753Z,101629.25
2019-01-03T18:35:39.680Z,101628.41
2019-01-03T18:38:05.659Z,101633.19
2019-01-03T18:40:31.686Z,101631.88
2019-01-03T18:42:57.729Z,101626.20
2019-01-03T18:45:23.931Z,101616.61
2019-01-03T18:47:49.924Z,101617.03
2019-01-03T18:50:18.903Z,101609.17
2019-01-03T18:52:43.934Z,101604.36
2019-01-03T18:55:09.904Z,101597.38
2019-01-03T18:57:36.031Z,101585.16
2019-01-03T19:00:05.285Z,101578.15
2019-01-03T19:02:31.220Z,101570.29
2019-01-03T19:04:57.111Z,101575.98
2019-01-03T19:07:23.192Z,101566.81
2019-01-03T19:09:49.235Z,101569.44
2019-01-03T19:12:15.255Z,101562.87
2019-01-03T19:14:41.340Z,101552.39
2019-01-03T19:17:07.271Z,101549.31
2019-01-03T19:19:33.268Z,101554.13
2019-01-03T19:21:59.360Z,101553.70
2019-01-03T19:24:25.266Z,101541.02
2019-01-03T19:26:51.301Z,101538.83
2019-01-03T19:29:17.376Z,101520.06
2019-01-03T19:31:43.384Z,101506.96
2019-01-03T19:34:09.385Z,101508.69
2019-01-03T19:36:35.488Z,101500.83
2019-01-03T19:39:01.421Z,101499.52
2019-01-03T19:41:27.571Z,101489.92
2019-01-03T19:43:53.674Z,101486.41
2019-01-03T19:46:19.702Z,101483.79
2019-01-03T19:48:45.598Z,101483.79
2019-01-03T19:51:11.628Z,101481.17
2019-01-03T19:53:37.515Z,101465.45
2019-01-03T19:56:03.445Z,101468.06
2019-01-03T19:58:29.522Z,101448.41
2019-01-03T20:00:55.576Z,101451.49
2019-01-03T20:03:21.573Z,101446.24
2019-01-03T20:05:47.766Z,101447.97
2019-01-03T20:08:13.737Z,101445.78
2019-01-03T20:10:39.756Z,101446.66
2019-01-03T20:13:06.137Z,101448.39
2019-01-03T20:15:32.144Z,101449.27
2019-01-03T20:17:58.092Z,101450.59
2019-01-03T20:20:24.216Z,101446.23
2019-01-03T20:22:50.091Z,101436.59
2019-01-03T20:25:16.101Z,101421.76
2019-01-03T20:27:42.181Z,101416.09
2019-01-03T20:30:09.439Z,101413.48
2019-01-03T20:32:35.446Z,101420.89
2019-01-03T20:35:01.740Z,101414.33
2019-01-03T20:37:27.736Z,101413.48
2019-01-03T20:39:53.798Z,101419.14
2019-01-03T20:42:19.986Z,101371.67
2019-01-03T20:44:46.000Z,101406.45
2019-01-03T20:47:12.023Z,101392.93
2019-01-03T20:49:38.064Z,101387.26
2019-01-03T20:52:04.297Z,101385.06
2019-01-03T20:54:30.284Z,101380.72
2019-01-03T20:56:56.381Z,101386.39
2019-01-03T20:59:22.324Z,101390.73
2019-01-03T21:01:48.425Z,101391.61
2019-01-03T21:04:14.503Z,101385.05
2019-01-03T21:06:40.469Z,101390.70
2019-01-03T21:09:06.482Z,101385.02
2019-01-03T21:11:32.476Z,101380.65
2019-01-03T21:13:58.377Z,101377.13
2019-01-03T21:16:24.405Z,101377.12
2019-01-03T21:18:50.871Z,101374.48
2019-01-03T21:21:16.896Z,101371.02
2019-01-03T21:23:42.798Z,101366.19
2019-01-03T21:26:09.070Z,101370.99
2019-01-03T21:28:34.985Z,101369.69
2019-01-03T21:31:00.916Z,101367.91
2019-01-03T21:33:27.033Z,101361.81
2019-01-03T21:35:52.928Z,101357.87
2019-01-03T21:38:18.875Z,101363.11
2019-01-03T21:40:45.078Z,101361.81
2019-01-03T21:43:11.079Z,101357.00
2019-01-03T21:45:37.000Z,101357.44
2019-01-03T21:48:03.284Z,101354.39
2019-01-03T21:50:29.274Z,101356.59
2019-01-03T21:52:55.220Z,101346.95
2019-01-03T21:55:21.207Z,101346.52
2019-01-03T21:57:47.221Z,101338.66
2019-01-03T22:00:13.590Z,101336.06
2019-01-03T22:02:39.581Z,101334.30
2019-01-03T22:05:05.828Z,101330.84
2019-01-03T22:07:31.846Z,101323.83
2019-01-03T22:09:58.036Z,101319.48
2019-01-03T22:12:24.114Z,101316.45
2019-01-03T22:14:50.011Z,101314.25
2019-01-03T22:17:16.184Z,101300.73
2019-01-03T22:19:42.086Z,101302.09
2019-01-03T22:22:08.018Z,101300.78
2019-01-03T22:24:34.071Z,101303.42
2019-01-03T22:27:00.026Z,101306.07
2019-01-03T22:29:26.127Z,101297.34
2019-01-03T22:31:52.126Z,101301.70
2019-01-03T22:34:18.168Z,101306.09
2019-01-03T22:36:44.069Z,101297.38
2019-01-03T22:39:10.220Z,101301.31
2019-01-03T22:41:36.158Z,101299.13
2019-01-03T22:44:02.155Z,101299.59
2019-01-03T22:46:28.229Z,101296.52
2019-01-03T22:48:54.136Z,101299.60
2019-01-03T22:51:20.476Z,101294.36
2019-01-03T22:56:12.195Z,101290.85
2019-01-03T22:58:38.097Z,101280.38
2019-01-03T23:01:04.802Z,101281.25
2019-01-03T23:03:30.968Z,101276.02
2019-01-03T23:05:57.015Z,101271.21
2019-01-03T23:08:22.961Z,101269.91
2019-01-03T23:10:49.150Z,101271.64
2019-01-03T23:13:15.114Z,101265.98
2019-01-03T23:15:41.024Z,101265.11
2019-01-03T23:18:07.332Z,101263.80
2019-01-03T23:20:33.378Z,101259.00
2019-01-03T23:22:59.372Z,101261.20
2019-01-03T23:25:25.605Z,101257.29
2019-01-03T23:27:51.523Z,101253.79
2019-01-03T23:30:17.417Z,101251.64
2019-01-03T23:32:43.581Z,101250.34
2019-01-03T23:35:09.518Z,101258.20
2019-01-03T23:37:35.422Z,101248.16
2019-01-03T23:40:01.797Z,101251.19
2019-01-03T23:42:27.843Z,101248.14
2019-01-03T23:45:19.094Z,101242.48
2019-01-03T23:47:45.628Z,101240.28
2019-01-03T23:50:20.913Z,101239.39
2019-01-03T23:52:46.948Z,101240.28
2019-01-03T23:55:13.083Z,101239.40
2019-01-03T23:57:39.347Z,101233.74
